sensor_id;sensor_type;location;lat;lon;timestamp;P1;durP1;ratioP1;P2;durP2;ratioP2
37280;SDS011;23169;41.804;12.596;2023-02-15T00:00:19;27.48;;;15.43;;
37280;SDS011;23169;41.804;12.596;2023-02-15T00:02:47;28.85;;;15.55;;
37280;SDS011;23169;41.804;12.596;2023-02-15T00:05:14;30.45;;;15.27;;
37280;SDS011;23169;41.804;12.596;2023-02-15T00:07:42;29.08;;;15.13;;
37280;SDS011;23169;41.804;12.596;2023-02-15T00:12:39;31.30;;;14.27;;
37280;SDS011;23169;41.804;12.596;2023-02-15T00:15:06;29.35;;;15.23;;
37280;SDS011;23169;41.804;12.596;2023-02-15T00:20:01;26.40;;;13.77;;
37280;SDS011;23169;41.804;12.596;2023-02-15T00:22:29;27.27;;;13.63;;
37280;SDS011;23169;41.804;12.596;2023-02-15T00:24:56;27.20;;;12.80;;
37280;SDS011;23169;41.804;12.596;2023-02-15T00:27:24;31.58;;;13.40;;
37280;SDS011;23169;41.804;12.596;2023-02-15T00:29:51;26.75;;;12.98;;
37280;SDS011;23169;41.804;12.596;2023-02-15T00:32:18;25.83;;;12.93;;
37280;SDS011;23169;41.804;12.596;2023-02-15T00:34:45;26.73;;;12.63;;
37280;SDS011;23169;41.804;12.596;2023-02-15T00:37:13;27.17;;;12.52;;
37280;SDS011;23169;41.804;12.596;2023-02-15T00:39:40;27.33;;;12.40;;
37280;SDS011;23169;41.804;12.596;2023-02-15T00:42:07;27.45;;;13.00;;
37280;SDS011;23169;41.804;12.596;2023-02-15T00:44:35;26.83;;;12.63;;
37280;SDS011;23169;41.804;12.596;2023-02-15T00:47:03;25.13;;;11.90;;
37280;SDS011;23169;41.804;12.596;2023-02-15T00:49:30;24.40;;;10.93;;
37280;SDS011;23169;41.804;12.596;2023-02-15T00:51:57;24.33;;;11.68;;
37280;SDS011;23169;41.804;12.596;2023-02-15T00:54:25;23.95;;;11.50;;
37280;SDS011;23169;41.804;12.596;2023-02-15T00:59:20;21.52;;;9.98;;
37280;SDS011;23169;41.804;12.596;2023-02-15T01:01:47;25.90;;;11.35;;
37280;SDS011;23169;41.804;12.596;2023-02-15T01:04:16;25.13;;;11.18;;
37280;SDS011;23169;41.804;12.596;2023-02-15T01:06:44;24.77;;;11.93;;
37280;SDS011;23169;41.804;12.596;2023-02-15T01:09:12;27.33;;;11.98;;
37280;SDS011;23169;41.804;12.596;2023-02-15T01:11:42;29.13;;;12.60;;
37280;SDS011;23169;41.804;12.596;2023-02-15T01:14:12;26.27;;;12.63;;
37280;SDS011;23169;41.804;12.596;2023-02-15T01:16:41;27.90;;;12.93;;
37280;SDS011;23169;41.804;12.596;2023-02-15T01:19:10;27.27;;;13.13;;
37280;SDS011;23169;41.804;12.596;2023-02-15T01:21:39;26.73;;;12.60;;
37280;SDS011;23169;41.804;12.596;2023-02-15T01:24:12;28.90;;;13.07;;
37280;SDS011;23169;41.804;12.596;2023-02-15T01:26:41;27.70;;;12.30;;
37280;SDS011;23169;41.804;12.596;2023-02-15T01:29:10;28.85;;;12.90;;
37280;SDS011;23169;41.804;12.596;2023-02-15T01:31:38;28.05;;;13.60;;
37280;SDS011;23169;41.804;12.596;2023-02-15T01:34:07;28.33;;;13.80;;
37280;SDS011;23169;41.804;12.596;2023-02-15T01:36:37;29.20;;;13.35;;
37280;SDS011;23169;41.804;12.596;2023-02-15T01:39:06;28.08;;;14.13;;
37280;SDS011;23169;41.804;12.596;2023-02-15T01:41:35;26.73;;;12.77;;
37280;SDS011;23169;41.804;12.596;2023-02-15T01:44:40;28.05;;;12.15;;
37280;SDS011;23169;41.804;12.596;2023-02-15T01:47:16;24.92;;;12.30;;
37280;SDS011;23169;41.804;12.596;2023-02-15T01:52:45;23.65;;;10.45;;
37280;SDS011;23169;41.804;12.596;2023-02-15T01:55:18;21.55;;;10.38;;
37280;SDS011;23169;41.804;12.596;2023-02-15T01:57:51;25.70;;;10.38;;
37280;SDS011;23169;41.804;12.596;2023-02-15T02:00:20;24.05;;;9.88;;
37280;SDS011;23169;41.804;12.596;2023-02-15T02:02:55;25.05;;;11.05;;
37280;SDS011;23169;41.804;12.596;2023-02-15T02:05:24;24.08;;;10.90;;
37280;SDS011;23169;41.804;12.596;2023-02-15T02:07:55;26.75;;;10.68;;
37280;SDS011;23169;41.804;12.596;2023-02-15T02:10:26;26.45;;;12.13;;
37280;SDS011;23169;41.804;12.596;2023-02-15T02:12:57;26.25;;;11.70;;
37280;SDS011;23169;41.804;12.596;2023-02-15T02:29:12;26.08;;;11.70;;
37280;SDS011;23169;41.804;12.596;2023-02-15T02:35:19;25.00;;;12.57;;
37280;SDS011;23169;41.804;12.596;2023-02-15T02:38:52;26.02;;;11.55;;
37280;SDS011;23169;41.804;12.596;2023-02-15T02:43:54;24.63;;;11.82;;
37280;SDS011;23169;41.804;12.596;2023-02-15T02:46:59;23.88;;;10.68;;
37280;SDS011;23169;41.804;12.596;2023-02-15T02:49:51;23.13;;;11.10;;
37280;SDS011;23169;41.804;12.596;2023-02-15T02:52:39;24.70;;;11.07;;
37280;SDS011;23169;41.804;12.596;2023-02-15T02:55:21;24.42;;;11.00;;
37280;SDS011;23169;41.804;12.596;2023-02-15T02:58:05;24.67;;;10.70;;
37280;SDS011;23169;41.804;12.596;2023-02-15T03:01:01;25.70;;;11.43;;
37280;SDS011;23169;41.804;12.596;2023-02-15T03:03:35;22.73;;;10.35;;
37280;SDS011;23169;41.804;12.596;2023-02-15T03:06:30;23.77;;;10.93;;
37280;SDS011;23169;41.804;12.596;2023-02-15T03:09:11;23.55;;;10.35;;
37280;SDS011;23169;41.804;12.596;2023-02-15T03:11:43;22.52;;;9.90;;
37280;SDS011;23169;41.804;12.596;2023-02-15T03:14:14;22.27;;;10.02;;
37280;SDS011;23169;41.804;12.596;2023-02-15T03:16:46;25.02;;;10.95;;
37280;SDS011;23169;41.804;12.596;2023-02-15T03:19:30;22.85;;;10.23;;
37280;SDS011;23169;41.804;12.596;2023-02-15T03:22:03;22.13;;;9.30;;
37280;SDS011;23169;41.804;12.596;2023-02-15T03:24:43;22.70;;;9.93;;
37280;SDS011;23169;41.804;12.596;2023-02-15T03:27:20;18.48;;;8.30;;
37280;SDS011;23169;41.804;12.596;2023-02-15T03:29:53;20.90;;;9.02;;
37280;SDS011;23169;41.804;12.596;2023-02-15T03:32:25;22.83;;;8.48;;
37280;SDS011;23169;41.804;12.596;2023-02-15T03:34:57;19.83;;;9.25;;
37280;SDS011;23169;41.804;12.596;2023-02-15T03:40:03;22.45;;;9.85;;
37280;SDS011;23169;41.804;12.596;2023-02-15T03:46:05;22.27;;;9.60;;
37280;SDS011;23169;41.804;12.596;2023-02-15T03:49:02;21.27;;;9.57;;
37280;SDS011;23169;41.804;12.596;2023-02-15T03:51:36;24.58;;;9.77;;
37280;SDS011;23169;41.804;12.596;2023-02-15T03:56:41;23.77;;;9.82;;
37280;SDS011;23169;41.804;12.596;2023-02-15T03:59:30;23.98;;;10.88;;
37280;SDS011;23169;41.804;12.596;2023-02-15T04:02:24;22.80;;;10.52;;
37280;SDS011;23169;41.804;12.596;2023-02-15T04:04:58;24.33;;;10.90;;
37280;SDS011;23169;41.804;12.596;2023-02-15T04:07:26;25.48;;;11.73;;
37280;SDS011;23169;41.804;12.596;2023-02-15T04:09:56;25.15;;;12.32;;
37280;SDS011;23169;41.804;12.596;2023-02-15T04:12:43;29.40;;;15.05;;
37280;SDS011;23169;41.804;12.596;2023-02-15T04:15:13;30.05;;;15.30;;
37280;SDS011;23169;41.804;12.596;2023-02-15T04:18:02;28.80;;;16.98;;
37280;SDS011;23169;41.804;12.596;2023-02-15T04:20:31;31.40;;;17.67;;
37280;SDS011;23169;41.804;12.596;2023-02-15T04:23:18;32.80;;;17.48;;
37280;SDS011;23169;41.804;12.596;2023-02-15T04:26:05;33.83;;;16.87;;
37280;SDS011;23169;41.804;12.596;2023-02-15T04:28:34;31.75;;;16.75;;
37280;SDS011;23169;41.804;12.596;2023-02-15T04:31:03;30.80;;;16.38;;
37280;SDS011;23169;41.804;12.596;2023-02-15T04:33:32;33.28;;;18.17;;
37280;SDS011;23169;41.804;12.596;2023-02-15T04:36:00;32.53;;;17.58;;
37280;SDS011;23169;41.804;12.596;2023-02-15T04:38:30;29.85;;;16.40;;
37280;SDS011;23169;41.804;12.596;2023-02-15T04:40:58;33.92;;;18.10;;
37280;SDS011;23169;41.804;12.596;2023-02-15T04:46:14;30.52;;;17.27;;
37280;SDS011;23169;41.804;12.596;2023-02-15T04:48:44;33.25;;;17.77;;
37280;SDS011;23169;41.804;12.596;2023-02-15T04:51:12;35.00;;;18.63;;
37280;SDS011;23169;41.804;12.596;2023-02-15T04:53:41;31.40;;;17.38;;
37280;SDS011;23169;41.804;12.596;2023-02-15T04:56:09;33.78;;;18.58;;
37280;SDS011;23169;41.804;12.596;2023-02-15T04:58:38;33.13;;;18.50;;
37280;SDS011;23169;41.804;12.596;2023-02-15T05:01:10;32.53;;;18.83;;
37280;SDS011;23169;41.804;12.596;2023-02-15T05:03:39;36.60;;;19.38;;
37280;SDS011;23169;41.804;12.596;2023-02-15T05:06:08;38.60;;;18.90;;
37280;SDS011;23169;41.804;12.596;2023-02-15T05:08:37;34.03;;;18.00;;
37280;SDS011;23169;41.804;12.596;2023-02-15T05:11:06;32.28;;;17.05;;
37280;SDS011;23169;41.804;12.596;2023-02-15T05:13:34;31.45;;;16.67;;
37280;SDS011;23169;41.804;12.596;2023-02-15T05:16:02;32.13;;;16.05;;
37280;SDS011;23169;41.804;12.596;2023-02-15T05:18:32;30.30;;;15.88;;
37280;SDS011;23169;41.804;12.596;2023-02-15T05:21:00;31.73;;;16.45;;
37280;SDS011;23169;41.804;12.596;2023-02-15T05:23:30;32.30;;;16.58;;
37280;SDS011;23169;41.804;12.596;2023-02-15T05:26:02;33.50;;;16.00;;
37280;SDS011;23169;41.804;12.596;2023-02-15T05:28:49;31.60;;;15.38;;
37280;SDS011;23169;41.804;12.596;2023-02-15T05:31:18;32.50;;;15.70;;
37280;SDS011;23169;41.804;12.596;2023-02-15T05:33:47;27.55;;;15.07;;
37280;SDS011;23169;41.804;12.596;2023-02-15T05:36:15;32.92;;;16.42;;
37280;SDS011;23169;41.804;12.596;2023-02-15T05:38:44;33.28;;;15.90;;
37280;SDS011;23169;41.804;12.596;2023-02-15T05:41:14;31.10;;;16.13;;
37280;SDS011;23169;41.804;12.596;2023-02-15T05:43:43;33.10;;;15.00;;
37280;SDS011;23169;41.804;12.596;2023-02-15T05:46:12;30.80;;;15.27;;
37280;SDS011;23169;41.804;12.596;2023-02-15T05:48:43;29.48;;;15.07;;
37280;SDS011;23169;41.804;12.596;2023-02-15T05:51:12;31.05;;;15.07;;
37280;SDS011;23169;41.804;12.596;2023-02-15T05:53:51;29.63;;;15.38;;
37280;SDS011;23169;41.804;12.596;2023-02-15T05:56:20;31.58;;;15.93;;
37280;SDS011;23169;41.804;12.596;2023-02-15T05:58:48;30.20;;;16.23;;
37280;SDS011;23169;41.804;12.596;2023-02-15T06:01:17;34.88;;;17.30;;
37280;SDS011;23169;41.804;12.596;2023-02-15T06:03:46;34.10;;;16.90;;
37280;SDS011;23169;41.804;12.596;2023-02-15T06:06:15;31.40;;;16.83;;
37280;SDS011;23169;41.804;12.596;2023-02-15T06:08:44;31.30;;;16.98;;
37280;SDS011;23169;41.804;12.596;2023-02-15T06:11:12;42.10;;;22.63;;
37280;SDS011;23169;41.804;12.596;2023-02-15T06:13:41;52.47;;;29.85;;
37280;SDS011;23169;41.804;12.596;2023-02-15T06:16:09;47.70;;;27.90;;
37280;SDS011;23169;41.804;12.596;2023-02-15T06:18:38;46.67;;;27.75;;
37280;SDS011;23169;41.804;12.596;2023-02-15T06:21:07;60.50;;;36.17;;
37280;SDS011;23169;41.804;12.596;2023-02-15T06:23:35;54.70;;;35.33;;
37280;SDS011;23169;41.804;12.596;2023-02-15T06:26:04;46.47;;;28.63;;
37280;SDS011;23169;41.804;12.596;2023-02-15T06:28:33;41.65;;;26.63;;
37280;SDS011;23169;41.804;12.596;2023-02-15T06:31:02;41.95;;;24.23;;
37280;SDS011;23169;41.804;12.596;2023-02-15T06:33:31;44.63;;;22.80;;
37280;SDS011;23169;41.804;12.596;2023-02-15T06:36:03;36.78;;;20.90;;
37280;SDS011;23169;41.804;12.596;2023-02-15T06:38:32;38.65;;;20.65;;
37280;SDS011;23169;41.804;12.596;2023-02-15T06:41:01;36.08;;;21.77;;
37280;SDS011;23169;41.804;12.596;2023-02-15T06:43:30;36.65;;;20.13;;
37280;SDS011;23169;41.804;12.596;2023-02-15T06:45:58;36.60;;;20.92;;
37280;SDS011;23169;41.804;12.596;2023-02-15T06:48:29;34.30;;;20.08;;
37280;SDS011;23169;41.804;12.596;2023-02-15T06:50:57;38.53;;;20.65;;
37280;SDS011;23169;41.804;12.596;2023-02-15T06:53:25;36.47;;;19.83;;
37280;SDS011;23169;41.804;12.596;2023-02-15T06:55:59;34.95;;;20.88;;
37280;SDS011;23169;41.804;12.596;2023-02-15T06:58:37;34.65;;;20.13;;
37280;SDS011;23169;41.804;12.596;2023-02-15T07:01:07;40.63;;;24.25;;
37280;SDS011;23169;41.804;12.596;2023-02-15T07:03:36;37.50;;;21.25;;
37280;SDS011;23169;41.804;12.596;2023-02-15T07:06:04;36.92;;;22.38;;
37280;SDS011;23169;41.804;12.596;2023-02-15T07:08:37;35.25;;;20.80;;
37280;SDS011;23169;41.804;12.596;2023-02-15T07:11:06;35.53;;;20.00;;
37280;SDS011;23169;41.804;12.596;2023-02-15T07:13:55;34.97;;;20.88;;
37280;SDS011;23169;41.804;12.596;2023-02-15T07:16:23;35.00;;;19.77;;
37280;SDS011;23169;41.804;12.596;2023-02-15T07:18:52;36.20;;;20.63;;
37280;SDS011;23169;41.804;12.596;2023-02-15T07:21:20;35.95;;;19.30;;
37280;SDS011;23169;41.804;12.596;2023-02-15T07:23:48;34.22;;;19.42;;
37280;SDS011;23169;41.804;12.596;2023-02-15T07:26:17;36.80;;;18.77;;
37280;SDS011;23169;41.804;12.596;2023-02-15T07:28:45;33.53;;;18.20;;
37280;SDS011;23169;41.804;12.596;2023-02-15T07:31:15;33.20;;;17.90;;
37280;SDS011;23169;41.804;12.596;2023-02-15T07:33:45;30.02;;;17.45;;
37280;SDS011;23169;41.804;12.596;2023-02-15T07:36:13;31.80;;;16.90;;
37280;SDS011;23169;41.804;12.596;2023-02-15T07:38:42;32.22;;;15.35;;
37280;SDS011;23169;41.804;12.596;2023-02-15T07:41:11;31.45;;;15.45;;
37280;SDS011;23169;41.804;12.596;2023-02-15T07:43:41;32.65;;;16.33;;
37280;SDS011;23169;41.804;12.596;2023-02-15T07:46:12;29.73;;;15.15;;
37280;SDS011;23169;41.804;12.596;2023-02-15T07:48:43;31.02;;;15.85;;
37280;SDS011;23169;41.804;12.596;2023-02-15T07:51:12;27.20;;;14.60;;
37280;SDS011;23169;41.804;12.596;2023-02-15T07:53:42;31.38;;;15.30;;
37280;SDS011;23169;41.804;12.596;2023-02-15T07:56:11;28.40;;;14.48;;
37280;SDS011;23169;41.804;12.596;2023-02-15T07:58:41;32.00;;;15.13;;
37280;SDS011;23169;41.804;12.596;2023-02-15T08:01:21;30.92;;;15.45;;
37280;SDS011;23169;41.804;12.596;2023-02-15T08:04:00;27.83;;;14.07;;
37280;SDS011;23169;41.804;12.596;2023-02-15T08:06:30;28.40;;;15.85;;
37280;SDS011;23169;41.804;12.596;2023-02-15T08:09:00;29.23;;;16.42;;
37280;SDS011;23169;41.804;12.596;2023-02-15T08:11:34;33.83;;;15.68;;
37280;SDS011;23169;41.804;12.596;2023-02-15T08:21:50;29.00;;;14.88;;
37280;SDS011;23169;41.804;12.596;2023-02-15T08:24:20;31.45;;;15.43;;
37280;SDS011;23169;41.804;12.596;2023-02-15T08:26:51;32.42;;;16.90;;
37280;SDS011;23169;41.804;12.596;2023-02-15T08:29:20;29.90;;;14.95;;
37280;SDS011;23169;41.804;12.596;2023-02-15T08:31:52;30.83;;;15.15;;
37280;SDS011;23169;41.804;12.596;2023-02-15T08:34:22;28.20;;;14.45;;
37280;SDS011;23169;41.804;12.596;2023-02-15T08:36:50;29.58;;;14.52;;
37280;SDS011;23169;41.804;12.596;2023-02-15T08:39:20;27.83;;;14.20;;
37280;SDS011;23169;41.804;12.596;2023-02-15T08:41:48;27.42;;;14.27;;
37280;SDS011;23169;41.804;12.596;2023-02-15T08:44:17;28.20;;;13.75;;
37280;SDS011;23169;41.804;12.596;2023-02-15T08:46:47;31.13;;;14.07;;
37280;SDS011;23169;41.804;12.596;2023-02-15T08:49:20;26.90;;;13.30;;
37280;SDS011;23169;41.804;12.596;2023-02-15T08:51:49;25.83;;;12.50;;
37280;SDS011;23169;41.804;12.596;2023-02-15T08:54:19;26.70;;;12.00;;
37280;SDS011;23169;41.804;12.596;2023-02-15T08:56:49;26.17;;;13.95;;
37280;SDS011;23169;41.804;12.596;2023-02-15T08:59:18;29.08;;;12.32;;
37280;SDS011;23169;41.804;12.596;2023-02-15T09:01:49;25.30;;;12.38;;
37280;SDS011;23169;41.804;12.596;2023-02-15T09:04:20;24.92;;;12.48;;
37280;SDS011;23169;41.804;12.596;2023-02-15T09:06:50;26.20;;;12.48;;
37280;SDS011;23169;41.804;12.596;2023-02-15T09:09:19;26.17;;;12.40;;
37280;SDS011;23169;41.804;12.596;2023-02-15T09:11:48;26.55;;;13.57;;
37280;SDS011;23169;41.804;12.596;2023-02-15T09:14:18;26.08;;;13.63;;
37280;SDS011;23169;41.804;12.596;2023-02-15T09:16:49;29.52;;;15.27;;
37280;SDS011;23169;41.804;12.596;2023-02-15T09:19:21;27.50;;;14.65;;
37280;SDS011;23169;41.804;12.596;2023-02-15T09:21:51;26.45;;;13.50;;
37280;SDS011;23169;41.804;12.596;2023-02-15T09:24:19;32.75;;;15.30;;
37280;SDS011;23169;41.804;12.596;2023-02-15T09:26:48;29.15;;;16.42;;
37280;SDS011;23169;41.804;12.596;2023-02-15T09:29:17;33.95;;;17.80;;
37280;SDS011;23169;41.804;12.596;2023-02-15T09:31:47;32.13;;;15.15;;
37280;SDS011;23169;41.804;12.596;2023-02-15T09:34:18;29.08;;;15.02;;
37280;SDS011;23169;41.804;12.596;2023-02-15T09:36:49;30.02;;;14.00;;
37280;SDS011;23169;41.804;12.596;2023-02-15T09:39:24;37.40;;;15.07;;
37280;SDS011;23169;41.804;12.596;2023-02-15T09:44:48;28.52;;;14.35;;
37280;SDS011;23169;41.804;12.596;2023-02-15T09:47:38;31.33;;;15.95;;
37280;SDS011;23169;41.804;12.596;2023-02-15T09:50:25;28.88;;;14.57;;
37280;SDS011;23169;41.804;12.596;2023-02-15T09:58:53;28.90;;;15.52;;
37280;SDS011;23169;41.804;12.596;2023-02-15T10:01:34;33.47;;;15.77;;
37280;SDS011;23169;41.804;12.596;2023-02-15T10:15:28;31.05;;;15.05;;
37280;SDS011;23169;41.804;12.596;2023-02-15T10:50:29;30.83;;;18.25;;
37280;SDS011;23169;41.804;12.596;2023-02-15T10:58:45;30.58;;;17.52;;
37280;SDS011;23169;41.804;12.596;2023-02-15T11:06:59;29.95;;;15.20;;
37280;SDS011;23169;41.804;12.596;2023-02-15T11:09:41;29.40;;;16.00;;
37280;SDS011;23169;41.804;12.596;2023-02-15T11:12:15;29.90;;;17.27;;
37280;SDS011;23169;41.804;12.596;2023-02-15T11:17:47;29.40;;;15.98;;
37280;SDS011;23169;41.804;12.596;2023-02-15T11:23:01;30.20;;;16.55;;
37280;SDS011;23169;41.804;12.596;2023-02-15T11:25:30;28.52;;;15.23;;
37280;SDS011;23169;41.804;12.596;2023-02-15T11:28:03;28.15;;;15.70;;
37280;SDS011;23169;41.804;12.596;2023-02-15T11:30:42;28.23;;;15.43;;
37280;SDS011;23169;41.804;12.596;2023-02-15T11:33:33;30.65;;;16.63;;
37280;SDS011;23169;41.804;12.596;2023-02-15T11:36:11;29.33;;;16.90;;
37280;SDS011;23169;41.804;12.596;2023-02-15T11:38:45;31.98;;;16.23;;
37280;SDS011;23169;41.804;12.596;2023-02-15T11:41:21;26.85;;;13.73;;
37280;SDS011;23169;41.804;12.596;2023-02-15T11:44:15;32.65;;;17.42;;
37280;SDS011;23169;41.804;12.596;2023-02-15T11:46:52;29.73;;;15.40;;
37280;SDS011;23169;41.804;12.596;2023-02-15T11:49:27;30.15;;;15.63;;
37280;SDS011;23169;41.804;12.596;2023-02-15T11:52:01;29.08;;;16.55;;
37280;SDS011;23169;41.804;12.596;2023-02-15T11:54:33;27.58;;;15.38;;
37280;SDS011;23169;41.804;12.596;2023-02-15T11:57:15;30.80;;;15.75;;
37280;SDS011;23169;41.804;12.596;2023-02-15T11:59:56;32.75;;;15.68;;
37280;SDS011;23169;41.804;12.596;2023-02-15T12:02:30;26.48;;;14.43;;
37280;SDS011;23169;41.804;12.596;2023-02-15T12:05:03;29.00;;;12.40;;
37280;SDS011;23169;41.804;12.596;2023-02-15T12:10:26;31.77;;;14.57;;
37280;SDS011;23169;41.804;12.596;2023-02-15T12:15:42;26.67;;;13.60;;
37280;SDS011;23169;41.804;12.596;2023-02-15T12:18:17;28.70;;;14.52;;
37280;SDS011;23169;41.804;12.596;2023-02-15T12:23:47;25.50;;;13.50;;
37280;SDS011;23169;41.804;12.596;2023-02-15T12:26:28;23.05;;;10.35;;
37280;SDS011;23169;41.804;12.596;2023-02-15T12:28:59;22.90;;;11.55;;
37280;SDS011;23169;41.804;12.596;2023-02-15T12:31:46;26.95;;;13.05;;
37280;SDS011;23169;41.804;12.596;2023-02-15T12:37:00;25.52;;;13.82;;
37280;SDS011;23169;41.804;12.596;2023-02-15T12:39:35;26.98;;;13.40;;
37280;SDS011;23169;41.804;12.596;2023-02-15T12:42:08;23.08;;;12.38;;
37280;SDS011;23169;41.804;12.596;2023-02-15T12:44:53;23.70;;;12.65;;
37280;SDS011;23169;41.804;12.596;2023-02-15T12:47:22;25.13;;;12.50;;
37280;SDS011;23169;41.804;12.596;2023-02-15T12:53:05;29.15;;;13.23;;
37280;SDS011;23169;41.804;12.596;2023-02-15T12:55:36;26.50;;;11.95;;
37280;SDS011;23169;41.804;12.596;2023-02-15T13:00:42;23.83;;;12.77;;
37280;SDS011;23169;41.804;12.596;2023-02-15T13:03:18;23.85;;;12.63;;
37280;SDS011;23169;41.804;12.596;2023-02-15T13:05:53;25.77;;;13.15;;
37280;SDS011;23169;41.804;12.596;2023-02-15T13:08:30;23.50;;;11.70;;
37280;SDS011;23169;41.804;12.596;2023-02-15T13:13:53;23.63;;;11.27;;
37280;SDS011;23169;41.804;12.596;2023-02-15T13:16:28;24.52;;;12.00;;
37280;SDS011;23169;41.804;12.596;2023-02-15T13:21:43;24.17;;;11.82;;
37280;SDS011;23169;41.804;12.596;2023-02-15T13:26:42;22.83;;;11.05;;
37280;SDS011;23169;41.804;12.596;2023-02-15T13:29:22;23.48;;;11.02;;
37280;SDS011;23169;41.804;12.596;2023-02-15T13:31:56;22.67;;;11.40;;
37280;SDS011;23169;41.804;12.596;2023-02-15T13:34:28;22.92;;;11.40;;
37280;SDS011;23169;41.804;12.596;2023-02-15T13:42:35;24.05;;;12.32;;
37280;SDS011;23169;41.804;12.596;2023-02-15T13:45:29;26.25;;;11.98;;
37280;SDS011;23169;41.804;12.596;2023-02-15T14:10:23;27.20;;;12.43;;
37280;SDS011;23169;41.804;12.596;2023-02-15T14:21:34;24.08;;;12.82;;
37280;SDS011;23169;41.804;12.596;2023-02-15T14:32:36;20.77;;;10.60;;
37280;SDS011;23169;41.804;12.596;2023-02-15T14:35:15;27.00;;;12.10;;
37280;SDS011;23169;41.804;12.596;2023-02-15T14:40:31;25.33;;;13.65;;
37280;SDS011;23169;41.804;12.596;2023-02-15T14:46:26;23.75;;;11.30;;
37280;SDS011;23169;41.804;12.596;2023-02-15T14:49:03;26.70;;;13.25;;
37280;SDS011;23169;41.804;12.596;2023-02-15T14:56:45;26.65;;;14.10;;
37280;SDS011;23169;41.804;12.596;2023-02-15T14:59:15;22.77;;;13.18;;
37280;SDS011;23169;41.804;12.596;2023-02-15T15:04:35;24.58;;;13.65;;
37280;SDS011;23169;41.804;12.596;2023-02-15T15:09:59;24.80;;;12.48;;
37280;SDS011;23169;41.804;12.596;2023-02-15T15:12:44;23.42;;;12.45;;
37280;SDS011;23169;41.804;12.596;2023-02-15T15:20:39;24.25;;;11.73;;
37280;SDS011;23169;41.804;12.596;2023-02-15T15:25:55;26.42;;;12.68;;
37280;SDS011;23169;41.804;12.596;2023-02-15T15:51:10;27.40;;;14.02;;
37280;SDS011;23169;41.804;12.596;2023-02-15T15:53:54;29.92;;;13.13;;
37280;SDS011;23169;41.804;12.596;2023-02-15T15:56:27;27.45;;;14.48;;
37280;SDS011;23169;41.804;12.596;2023-02-15T15:59:06;27.67;;;14.27;;
37280;SDS011;23169;41.804;12.596;2023-02-15T16:01:44;28.17;;;12.05;;
37280;SDS011;23169;41.804;12.596;2023-02-15T16:04:14;26.83;;;12.85;;
37280;SDS011;23169;41.804;12.596;2023-02-15T16:06:55;25.80;;;11.77;;
37280;SDS011;23169;41.804;12.596;2023-02-15T16:09:26;23.88;;;11.90;;
37280;SDS011;23169;41.804;12.596;2023-02-15T16:11:58;23.45;;;12.48;;
37280;SDS011;23169;41.804;12.596;2023-02-15T16:14:36;22.73;;;11.75;;
37280;SDS011;23169;41.804;12.596;2023-02-15T16:17:17;23.23;;;12.20;;
37280;SDS011;23169;41.804;12.596;2023-02-15T16:20:06;24.17;;;12.00;;
37280;SDS011;23169;41.804;12.596;2023-02-15T16:22:45;21.48;;;11.50;;
37280;SDS011;23169;41.804;12.596;2023-02-15T16:27:52;24.63;;;12.02;;
37280;SDS011;23169;41.804;12.596;2023-02-15T16:32:53;23.27;;;11.38;;
37280;SDS011;23169;41.804;12.596;2023-02-15T16:35:23;25.27;;;12.18;;
37280;SDS011;23169;41.804;12.596;2023-02-15T16:37:53;24.13;;;12.50;;
37280;SDS011;23169;41.804;12.596;2023-02-15T16:42:57;26.35;;;13.93;;
37280;SDS011;23169;41.804;12.596;2023-02-15T16:47:59;26.45;;;14.23;;
37280;SDS011;23169;41.804;12.596;2023-02-15T16:50:34;28.92;;;15.05;;
37280;SDS011;23169;41.804;12.596;2023-02-15T16:53:06;32.08;;;16.67;;
37280;SDS011;23169;41.804;12.596;2023-02-15T16:55:42;28.73;;;16.33;;
37280;SDS011;23169;41.804;12.596;2023-02-15T16:58:14;28.73;;;15.38;;
37280;SDS011;23169;41.804;12.596;2023-02-15T17:00:44;24.95;;;13.73;;
37280;SDS011;23169;41.804;12.596;2023-02-15T17:03:20;29.55;;;15.82;;
37280;SDS011;23169;41.804;12.596;2023-02-15T17:05:52;29.27;;;14.65;;
37280;SDS011;23169;41.804;12.596;2023-02-15T17:08:29;30.73;;;17.02;;
37280;SDS011;23169;41.804;12.596;2023-02-15T17:13:28;32.00;;;17.58;;
37280;SDS011;23169;41.804;12.596;2023-02-15T17:18:31;31.35;;;18.10;;
37280;SDS011;23169;41.804;12.596;2023-02-15T17:21:01;33.60;;;18.30;;
37280;SDS011;23169;41.804;12.596;2023-02-15T17:23:44;34.05;;;18.52;;
37280;SDS011;23169;41.804;12.596;2023-02-15T17:26:15;31.65;;;18.45;;
37280;SDS011;23169;41.804;12.596;2023-02-15T17:28:52;31.10;;;18.95;;
37280;SDS011;23169;41.804;12.596;2023-02-15T17:31:46;33.35;;;19.15;;
37280;SDS011;23169;41.804;12.596;2023-02-15T17:37:22;32.90;;;18.17;;
37280;SDS011;23169;41.804;12.596;2023-02-15T17:42:54;35.42;;;19.80;;
37280;SDS011;23169;41.804;12.596;2023-02-15T17:45:30;33.22;;;18.13;;
37280;SDS011;23169;41.804;12.596;2023-02-15T17:48:02;33.33;;;18.38;;
37280;SDS011;23169;41.804;12.596;2023-02-15T17:50:32;31.17;;;18.15;;
37280;SDS011;23169;41.804;12.596;2023-02-15T17:53:01;32.15;;;19.73;;
37280;SDS011;23169;41.804;12.596;2023-02-15T17:55:30;30.00;;;17.90;;
37280;SDS011;23169;41.804;12.596;2023-02-15T17:58:13;34.00;;;19.77;;
37280;SDS011;23169;41.804;12.596;2023-02-15T18:00:48;33.45;;;18.85;;
37280;SDS011;23169;41.804;12.596;2023-02-15T18:03:47;33.90;;;19.90;;
37280;SDS011;23169;41.804;12.596;2023-02-15T18:06:39;32.53;;;18.38;;
37280;SDS011;23169;41.804;12.596;2023-02-15T18:09:27;33.97;;;18.92;;
37280;SDS011;23169;41.804;12.596;2023-02-15T18:12:17;31.67;;;19.08;;
37280;SDS011;23169;41.804;12.596;2023-02-15T18:14:50;35.95;;;20.55;;
37280;SDS011;23169;41.804;12.596;2023-02-15T18:17:27;38.38;;;21.42;;
37280;SDS011;23169;41.804;12.596;2023-02-15T18:20:16;36.03;;;20.35;;
37280;SDS011;23169;41.804;12.596;2023-02-15T18:23:01;35.87;;;20.70;;
37280;SDS011;23169;41.804;12.596;2023-02-15T18:25:30;33.28;;;20.38;;
37280;SDS011;23169;41.804;12.596;2023-02-15T18:27:58;35.75;;;20.27;;
37280;SDS011;23169;41.804;12.596;2023-02-15T18:30:27;34.67;;;20.85;;
37280;SDS011;23169;41.804;12.596;2023-02-15T18:32:56;33.25;;;20.80;;
37280;SDS011;23169;41.804;12.596;2023-02-15T18:35:26;35.42;;;22.13;;
37280;SDS011;23169;41.804;12.596;2023-02-15T18:37:58;35.25;;;22.02;;
37280;SDS011;23169;41.804;12.596;2023-02-15T18:40:28;36.25;;;21.92;;
37280;SDS011;23169;41.804;12.596;2023-02-15T18:42:57;33.88;;;21.20;;
37280;SDS011;23169;41.804;12.596;2023-02-15T18:45:27;39.95;;;23.42;;
37280;SDS011;23169;41.804;12.596;2023-02-15T18:47:59;35.47;;;22.77;;
37280;SDS011;23169;41.804;12.596;2023-02-15T18:50:30;33.65;;;22.10;;
37280;SDS011;23169;41.804;12.596;2023-02-15T18:53:02;39.78;;;23.42;;
37280;SDS011;23169;41.804;12.596;2023-02-15T18:55:33;36.63;;;23.23;;
37280;SDS011;23169;41.804;12.596;2023-02-15T18:58:02;39.33;;;24.08;;
37280;SDS011;23169;41.804;12.596;2023-02-15T19:00:32;39.38;;;24.95;;